sensor_id;sensor_type;location;lat;lon;timestamp;temperature;humidity
12043;DHT22;6082;49.306;12.862;2024-02-23T00:00:27;9.50;99.90
12043;DHT22;6082;49.306;12.862;2024-02-23T00:02:53;9.50;99.90
12043;DHT22;6082;49.306;12.862;2024-02-23T00:05:21;9.50;99.90
12043;DHT22;6082;49.306;12.862;2024-02-23T00:07:47;9.50;99.90
12043;DHT22;6082;49.306;12.862;2024-02-23T00:10:13;9.50;99.90
12043;DHT22;6082;49.306;12.862;2024-02-23T00:12:38;9.40;99.90
12043;DHT22;6082;49.306;12.862;2024-02-23T00:15:04;9.40;99.90
12043;DHT22;6082;49.306;12.862;2024-02-23T00:17:30;9.40;99.90
12043;DHT22;6082;49.306;12.862;2024-02-23T00:19:56;9.30;99.90
12043;DHT22;6082;49.306;12.862;2024-02-23T00:22:22;9.20;99.90
12043;DHT22;6082;49.306;12.862;2024-02-23T00:24:47;9.30;99.90
12043;DHT22;6082;49.306;12.862;2024-02-23T00:27:13;9.30;99.90
12043;DHT22;6082;49.306;12.862;2024-02-23T00:29:39;9.30;99.90
12043;DHT22;6082;49.306;12.862;2024-02-23T00:32:06;9.20;99.90
12043;DHT22;6082;49.306;12.862;2024-02-23T00:34:32;9.20;99.90
12043;DHT22;6082;49.306;12.862;2024-02-23T00:36:58;9.20;99.90
12043;DHT22;6082;49.306;12.862;2024-02-23T00:39:23;9.20;99.90
12043;DHT22;6082;49.306;12.862;2024-02-23T00:41:49;9.20;99.90
12043;DHT22;6082;49.306;12.862;2024-02-23T00:44:15;9.20;99.90
12043;DHT22;6082;49.306;12.862;2024-02-23T00:46:41;9.20;99.90
12043;DHT22;6082;49.306;12.862;2024-02-23T00:49:07;9.20;99.90
12043;DHT22;6082;49.306;12.862;2024-02-23T00:51:33;9.20;99.90
12043;DHT22;6082;49.306;12.862;2024-02-23T00:53:58;9.20;99.90
12043;DHT22;6082;49.306;12.862;2024-02-23T00:56:25;9.20;99.90
12043;DHT22;6082;49.306;12.862;2024-02-23T00:58:51;9.10;99.90
12043;DHT22;6082;49.306;12.862;2024-02-23T01:01:17;9.10;99.90
12043;DHT22;6082;49.306;12.862;2024-02-23T01:03:42;9.10;99.90
12043;DHT22;6082;49.306;12.862;2024-02-23T01:06:08;9.10;99.90
12043;DHT22;6082;49.306;12.862;2024-02-23T01:08:34;9.00;99.90
12043;DHT22;6082;49.306;12.862;2024-02-23T01:11:01;9.00;99.90
12043;DHT22;6082;49.306;12.862;2024-02-23T01:13:26;9.00;99.90
12043;DHT22;6082;49.306;12.862;2024-02-23T01:15:52;9.00;99.90
12043;DHT22;6082;49.306;12.862;2024-02-23T01:18:19;9.00;99.90
12043;DHT22;6082;49.306;12.862;2024-02-23T01:20:45;9.10;99.90
12043;DHT22;6082;49.306;12.862;2024-02-23T01:23:11;9.10;99.90
12043;DHT22;6082;49.306;12.862;2024-02-23T01:25:37;9.00;99.90
12043;DHT22;6082;49.306;12.862;2024-02-23T01:28:03;9.00;99.90
12043;DHT22;6082;49.306;12.862;2024-02-23T01:30:29;9.00;99.90
12043;DHT22;6082;49.306;12.862;2024-02-23T01:32:54;9.00;99.90
12043;DHT22;6082;49.306;12.862;2024-02-23T01:35:20;9.00;99.90
12043;DHT22;6082;49.306;12.862;2024-02-23T01:37:46;8.90;99.90
12043;DHT22;6082;49.306;12.862;2024-02-23T01:40:12;8.90;99.90
12043;DHT22;6082;49.306;12.862;2024-02-23T01:42:38;8.90;99.90
12043;DHT22;6082;49.306;12.862;2024-02-23T01:45:04;8.80;99.90
12043;DHT22;6082;49.306;12.862;2024-02-23T01:47:30;8.80;99.90
12043;DHT22;6082;49.306;12.862;2024-02-23T01:49:57;8.80;99.90
12043;DHT22;6082;49.306;12.862;2024-02-23T01:52:24;8.80;99.90
12043;DHT22;6082;49.306;12.862;2024-02-23T01:54:51;8.80;99.90
12043;DHT22;6082;49.306;12.862;2024-02-23T01:57:17;8.70;99.90
12043;DHT22;6082;49.306;12.862;2024-02-23T01:59:43;8.70;99.90
12043;DHT22;6082;49.306;12.862;2024-02-23T02:02:09;8.60;99.90
12043;DHT22;6082;49.306;12.862;2024-02-23T02:04:35;8.60;99.90
12043;DHT22;6082;49.306;12.862;2024-02-23T02:07:01;8.50;99.90
12043;DHT22;6082;49.306;12.862;2024-02-23T02:09:27;8.50;99.90
12043;DHT22;6082;49.306;12.862;2024-02-23T02:11:53;8.40;99.90
12043;DHT22;6082;49.306;12.862;2024-02-23T02:14:19;8.40;99.90
12043;DHT22;6082;49.306;12.862;2024-02-23T02:16:45;8.40;99.90
12043;DHT22;6082;49.306;12.862;2024-02-23T02:19:11;8.20;99.90
12043;DHT22;6082;49.306;12.862;2024-02-23T02:21:37;8.00;99.90
12043;DHT22;6082;49.306;12.862;2024-02-23T02:24:04;7.80;99.90
12043;DHT22;6082;49.306;12.862;2024-02-23T02:26:34;7.70;99.90
12043;DHT22;6082;49.306;12.862;2024-02-23T02:29:00;7.60;99.90
12043;DHT22;6082;49.306;12.862;2024-02-23T02:31:25;7.50;99.90
12043;DHT22;6082;49.306;12.862;2024-02-23T02:33:51;7.40;99.90
12043;DHT22;6082;49.306;12.862;2024-02-23T02:36:17;7.30;99.90
12043;DHT22;6082;49.306;12.862;2024-02-23T02:38:42;7.30;99.90
12043;DHT22;6082;49.306;12.862;2024-02-23T02:41:09;7.30;99.90
12043;DHT22;6082;49.306;12.862;2024-02-23T02:43:34;7.30;99.90
12043;DHT22;6082;49.306;12.862;2024-02-23T02:46:00;7.30;99.90
12043;DHT22;6082;49.306;12.862;2024-02-23T02:48:26;7.30;99.90
12043;DHT22;6082;49.306;12.862;2024-02-23T02:50:52;7.20;99.90
12043;DHT22;6082;49.306;12.862;2024-02-23T02:53:18;7.20;99.90
12043;DHT22;6082;49.306;12.862;2024-02-23T02:55:44;7.10;99.90
12043;DHT22;6082;49.306;12.862;2024-02-23T02:58:13;7.20;99.90
12043;DHT22;6082;49.306;12.862;2024-02-23T03:00:39;7.10;99.90
12043;DHT22;6082;49.306;12.862;2024-02-23T03:03:05;7.10;99.90
12043;DHT22;6082;49.306;12.862;2024-02-23T03:05:31;7.10;99.90
12043;DHT22;6082;49.306;12.862;2024-02-23T03:07:57;7.00;99.90
12043;DHT22;6082;49.306;12.862;2024-02-23T03:10:22;7.00;99.90
12043;DHT22;6082;49.306;12.862;2024-02-23T03:12:48;6.90;99.90
12043;DHT22;6082;49.306;12.862;2024-02-23T03:15:14;6.80;99.90
12043;DHT22;6082;49.306;12.862;2024-02-23T03:17:40;6.80;99.90
12043;DHT22;6082;49.306;12.862;2024-02-23T03:20:06;6.80;99.90
12043;DHT22;6082;49.306;12.862;2024-02-23T03:22:39;6.80;99.90
12043;DHT22;6082;49.306;12.862;2024-02-23T03:25:05;6.80;99.90
12043;DHT22;6082;49.306;12.862;2024-02-23T03:27:36;6.80;99.90
12043;DHT22;6082;49.306;12.862;2024-02-23T03:30:03;6.70;99.90
12043;DHT22;6082;49.306;12.862;2024-02-23T03:32:29;6.60;99.90
12043;DHT22;6082;49.306;12.862;2024-02-23T03:34:56;6.50;99.90
12043;DHT22;6082;49.306;12.862;2024-02-23T03:37:22;6.50;99.90
12043;DHT22;6082;49.306;12.862;2024-02-23T03:39:48;6.50;99.90
12043;DHT22;6082;49.306;12.862;2024-02-23T03:42:14;6.50;99.90
12043;DHT22;6082;49.306;12.862;2024-02-23T03:44:40;6.50;99.90
12043;DHT22;6082;49.306;12.862;2024-02-23T03:47:08;6.40;99.90
12043;DHT22;6082;49.306;12.862;2024-02-23T03:49:33;6.40;99.90
12043;DHT22;6082;49.306;12.862;2024-02-23T03:51:59;6.30;99.90
12043;DHT22;6082;49.306;12.862;2024-02-23T03:54:25;6.30;99.90
12043;DHT22;6082;49.306;12.862;2024-02-23T03:56:50;6.30;99.90
12043;DHT22;6082;49.306;12.862;2024-02-23T03:59:16;6.20;99.90
12043;DHT22;6082;49.306;12.862;2024-02-23T04:01:42;6.20;99.90
12043;DHT22;6082;49.306;12.862;2024-02-23T04:04:08;6.20;99.90
12043;DHT22;6082;49.306;12.862;2024-02-23T04:06:34;6.20;99.90
12043;DHT22;6082;49.306;12.862;2024-02-23T04:08:59;6.20;99.90
12043;DHT22;6082;49.306;12.862;2024-02-23T04:11:25;6.30;99.90
12043;DHT22;6082;49.306;12.862;2024-02-23T04:13:51;6.30;99.90
12043;DHT22;6082;49.306;12.862;2024-02-23T04:16:18;6.20;99.90
12043;DHT22;6082;49.306;12.862;2024-02-23T04:18:43;6.20;99.90
12043;DHT22;6082;49.306;12.862;2024-02-23T04:21:09;6.20;99.90
12043;DHT22;6082;49.306;12.862;2024-02-23T04:23:38;6.20;99.90
12043;DHT22;6082;49.306;12.862;2024-02-23T04:26:03;6.20;99.90
12043;DHT22;6082;49.306;12.862;2024-02-23T04:28:29;6.20;99.90
12043;DHT22;6082;49.306;12.862;2024-02-23T04:30:56;6.10;99.90
12043;DHT22;6082;49.306;12.862;2024-02-23T04:33:22;6.10;99.90
12043;DHT22;6082;49.306;12.862;2024-02-23T04:35:48;6.10;99.90
12043;DHT22;6082;49.306;12.862;2024-02-23T04:38:14;6.00;99.90
12043;DHT22;6082;49.306;12.862;2024-02-23T04:40:39;6.00;99.90
12043;DHT22;6082;49.306;12.862;2024-02-23T04:43:05;6.00;99.90
12043;DHT22;6082;49.306;12.862;2024-02-23T04:45:31;6.00;99.90
12043;DHT22;6082;49.306;12.862;2024-02-23T04:47:56;5.90;99.90
12043;DHT22;6082;49.306;12.862;2024-02-23T04:50:22;5.90;99.90
12043;DHT22;6082;49.306;12.862;2024-02-23T04:52:48;5.90;99.90
12043;DHT22;6082;49.306;12.862;2024-02-23T04:55:15;5.90;99.90
12043;DHT22;6082;49.306;12.862;2024-02-23T04:57:41;5.90;99.90
12043;DHT22;6082;49.306;12.862;2024-02-23T05:00:07;5.90;99.90
12043;DHT22;6082;49.306;12.862;2024-02-23T05:02:33;5.90;99.90
12043;DHT22;6082;49.306;12.862;2024-02-23T05:05:04;5.90;99.90
12043;DHT22;6082;49.306;12.862;2024-02-23T05:07:31;5.90;99.90
12043;DHT22;6082;49.306;12.862;2024-02-23T05:09:57;5.90;99.90
12043;DHT22;6082;49.306;12.862;2024-02-23T05:12:23;5.90;99.90
12043;DHT22;6082;49.306;12.862;2024-02-23T05:14:48;5.90;99.90
12043;DHT22;6082;49.306;12.862;2024-02-23T05:17:14;5.90;99.90
12043;DHT22;6082;49.306;12.862;2024-02-23T05:19:40;5.80;99.90
12043;DHT22;6082;49.306;12.862;2024-02-23T05:22:05;5.80;99.90
12043;DHT22;6082;49.306;12.862;2024-02-23T05:24:31;5.80;99.90
12043;DHT22;6082;49.306;12.862;2024-02-23T05:26:57;5.80;99.90
12043;DHT22;6082;49.306;12.862;2024-02-23T05:29:24;5.80;99.90
12043;DHT22;6082;49.306;12.862;2024-02-23T05:31:51;5.80;99.90
12043;DHT22;6082;49.306;12.862;2024-02-23T05:34:17;5.80;99.90
12043;DHT22;6082;49.306;12.862;2024-02-23T05:36:44;5.80;99.90
12043;DHT22;6082;49.306;12.862;2024-02-23T05:39:12;5.70;99.90
12043;DHT22;6082;49.306;12.862;2024-02-23T05:41:38;5.70;99.90
12043;DHT22;6082;49.306;12.862;2024-02-23T05:44:05;5.70;99.90
12043;DHT22;6082;49.306;12.862;2024-02-23T05:46:35;5.60;99.90
12043;DHT22;6082;49.306;12.862;2024-02-23T05:49:02;5.60;99.90
12043;DHT22;6082;49.306;12.862;2024-02-23T05:51:30;5.60;99.90
12043;DHT22;6082;49.306;12.862;2024-02-23T05:53:56;5.60;99.90
12043;DHT22;6082;49.306;12.862;2024-02-23T05:56:22;5.60;99.90
12043;DHT22;6082;49.306;12.862;2024-02-23T05:58:51;5.60;99.90
12043;DHT22;6082;49.306;12.862;2024-02-23T06:01:18;5.50;99.90
12043;DHT22;6082;49.306;12.862;2024-02-23T06:03:44;5.50;99.90
12043;DHT22;6082;49.306;12.862;2024-02-23T06:06:10;5.50;99.90
12043;DHT22;6082;49.306;12.862;2024-02-23T06:08:36;5.50;99.90
12043;DHT22;6082;49.306;12.862;2024-02-23T06:11:03;5.50;99.90
12043;DHT22;6082;49.306;12.862;2024-02-23T06:13:30;5.50;99.90
12043;DHT22;6082;49.306;12.862;2024-02-23T06:15:56;5.50;99.90
12043;DHT22;6082;49.306;12.862;2024-02-23T06:18:21;5.50;99.90
12043;DHT22;6082;49.306;12.862;2024-02-23T06:20:48;5.50;99.90
12043;DHT22;6082;49.306;12.862;2024-02-23T06:23:14;5.40;99.90
12043;DHT22;6082;49.306;12.862;2024-02-23T06:25:40;5.40;99.90
12043;DHT22;6082;49.306;12.862;2024-02-23T06:28:06;5.40;99.90
12043;DHT22;6082;49.306;12.862;2024-02-23T06:30:32;5.40;99.90
12043;DHT22;6082;49.306;12.862;2024-02-23T06:32:58;5.40;99.90
12043;DHT22;6082;49.306;12.862;2024-02-23T06:35:23;5.40;99.90
12043;DHT22;6082;49.306;12.862;2024-02-23T06:37:49;5.40;99.90
12043;DHT22;6082;49.306;12.862;2024-02-23T06:40:15;5.30;99.90
12043;DHT22;6082;49.306;12.862;2024-02-23T06:42:40;5.30;99.90
12043;DHT22;6082;49.306;12.862;2024-02-23T06:45:06;5.40;99.90
12043;DHT22;6082;49.306;12.862;2024-02-23T06:47:33;5.40;99.90
12043;DHT22;6082;49.306;12.862;2024-02-23T06:49:59;5.40;99.90
12043;DHT22;6082;49.306;12.862;2024-02-23T06:52:25;5.40;99.90
12043;DHT22;6082;49.306;12.862;2024-02-23T06:54:52;5.50;99.90
12043;DHT22;6082;49.306;12.862;2024-02-23T06:57:17;5.50;99.90
12043;DHT22;6082;49.306;12.862;2024-02-23T06:59:43;5.50;99.90
12043;DHT22;6082;49.306;12.862;2024-02-23T07:02:09;5.50;99.90
12043;DHT22;6082;49.306;12.862;2024-02-23T07:04:35;5.50;99.90
12043;DHT22;6082;49.306;12.862;2024-02-23T07:07:01;5.60;99.90
12043;DHT22;6082;49.306;12.862;2024-02-23T07:09:33;5.70;99.90
12043;DHT22;6082;49.306;12.862;2024-02-23T07:11:58;5.80;99.90
12043;DHT22;6082;49.306;12.862;2024-02-23T07:14:24;5.90;99.90
12043;DHT22;6082;49.306;12.862;2024-02-23T07:16:50;5.90;99.90
12043;DHT22;6082;49.306;12.862;2024-02-23T07:19:16;5.90;99.90
12043;DHT22;6082;49.306;12.862;2024-02-23T07:21:42;6.00;99.90
12043;DHT22;6082;49.306;12.862;2024-02-23T07:24:08;6.10;99.90
12043;DHT22;6082;49.306;12.862;2024-02-23T07:26:34;6.20;99.90
12043;DHT22;6082;49.306;12.862;2024-02-23T07:29:00;6.30;99.90
12043;DHT22;6082;49.306;12.862;2024-02-23T07:31:26;6.30;99.90
12043;DHT22;6082;49.306;12.862;2024-02-23T07:33:51;6.30;99.90
12043;DHT22;6082;49.306;12.862;2024-02-23T07:36:17;6.30;99.90
12043;DHT22;6082;49.306;12.862;2024-02-23T07:38:43;6.30;99.90
12043;DHT22;6082;49.306;12.862;2024-02-23T07:41:11;6.30;99.90
12043;DHT22;6082;49.306;12.862;2024-02-23T07:43:36;6.30;99.90
12043;DHT22;6082;49.306;12.862;2024-02-23T07:46:02;6.30;99.90
12043;DHT22;6082;49.306;12.862;2024-02-23T07:48:30;6.30;99.90
12043;DHT22;6082;49.306;12.862;2024-02-23T07:50:56;6.30;99.90
12043;DHT22;6082;49.306;12.862;2024-02-23T07:53:21;6.40;99.90
12043;DHT22;6082;49.306;12.862;2024-02-23T07:55:47;6.30;99.90
12043;DHT22;6082;49.306;12.862;2024-02-23T07:58:13;6.30;99.90
12043;DHT22;6082;49.306;12.862;2024-02-23T08:00:38;6.30;99.90
12043;DHT22;6082;49.306;12.862;2024-02-23T08:03:04;6.30;99.90
12043;DHT22;6082;49.306;12.862;2024-02-23T08:05:30;6.30;99.90
12043;DHT22;6082;49.306;12.862;2024-02-23T08:07:56;6.40;99.90
12043;DHT22;6082;49.306;12.862;2024-02-23T08:10:22;6.40;99.90
12043;DHT22;6082;49.306;12.862;2024-02-23T08:12:48;6.30;99.90
12043;DHT22;6082;49.306;12.862;2024-02-23T08:15:13;6.30;99.90
12043;DHT22;6082;49.306;12.862;2024-02-23T08:17:39;6.40;99.90
12043;DHT22;6082;49.306;12.862;2024-02-23T08:20:05;6.30;99.90
12043;DHT22;6082;49.306;12.862;2024-02-23T08:22:31;6.30;99.90
12043;DHT22;6082;49.306;12.862;2024-02-23T08:24:57;6.30;99.90
12043;DHT22;6082;49.306;12.862;2024-02-23T08:27:22;6.20;99.90
12043;DHT22;6082;49.306;12.862;2024-02-23T08:29:48;6.20;99.90
12043;DHT22;6082;49.306;12.862;2024-02-23T08:32:14;6.10;99.90
12043;DHT22;6082;49.306;12.862;2024-02-23T08:34:40;6.10;99.90
12043;DHT22;6082;49.306;12.862;2024-02-23T08:37:05;6.10;99.90
12043;DHT22;6082;49.306;12.862;2024-02-23T08:39:31;6.10;99.90
12043;DHT22;6082;49.306;12.862;2024-02-23T08:41:57;6.10;99.90
12043;DHT22;6082;49.306;12.862;2024-02-23T08:44:22;6.10;99.90
12043;DHT22;6082;49.306;12.862;2024-02-23T08:46:48;6.20;99.90
12043;DHT22;6082;49.306;12.862;2024-02-23T08:49:14;6.20;99.90
12043;DHT22;6082;49.306;12.862;2024-02-23T08:51:40;6.30;99.90
12043;DHT22;6082;49.306;12.862;2024-02-23T08:54:06;6.30;99.90
12043;DHT22;6082;49.306;12.862;2024-02-23T08:56:37;6.30;99.90
12043;DHT22;6082;49.306;12.862;2024-02-23T08:59:04;6.40;99.90
12043;DHT22;6082;49.306;12.862;2024-02-23T09:01:30;6.40;99.90
12043;DHT22;6082;49.306;12.862;2024-02-23T09:03:55;6.50;99.90
12043;DHT22;6082;49.306;12.862;2024-02-23T09:06:21;6.50;99.90
12043;DHT22;6082;49.306;12.862;2024-02-23T09:08:47;6.50;99.90
12043;DHT22;6082;49.306;12.862;2024-02-23T09:11:13;6.60;99.90
12043;DHT22;6082;49.306;12.862;2024-02-23T09:13:40;6.70;99.90
12043;DHT22;6082;49.306;12.862;2024-02-23T09:16:07;6.70;99.90
12043;DHT22;6082;49.306;12.862;2024-02-23T09:18:34;6.70;99.90
12043;DHT22;6082;49.306;12.862;2024-02-23T09:21:00;6.70;99.90
12043;DHT22;6082;49.306;12.862;2024-02-23T09:23:26;6.70;99.90
12043;DHT22;6082;49.306;12.862;2024-02-23T09:25:52;6.70;99.90
12043;DHT22;6082;49.306;12.862;2024-02-23T09:28:17;6.70;99.90
12043;DHT22;6082;49.306;12.862;2024-02-23T09:30:43;6.80;99.90
12043;DHT22;6082;49.306;12.862;2024-02-23T09:33:09;6.80;99.90
12043;DHT22;6082;49.306;12.862;2024-02-23T09:35:34;6.80;99.90
12043;DHT22;6082;49.306;12.862;2024-02-23T09:38:00;6.90;99.90
12043;DHT22;6082;49.306;12.862;2024-02-23T09:40:26;6.80;99.90
12043;DHT22;6082;49.306;12.862;2024-02-23T09:42:57;6.90;99.90
12043;DHT22;6082;49.306;12.862;2024-02-23T09:45:27;6.90;99.90
12043;DHT22;6082;49.306;12.862;2024-02-23T09:47:57;6.90;99.90
12043;DHT22;6082;49.306;12.862;2024-02-23T09:50:24;7.00;99.90
12043;DHT22;6082;49.306;12.862;2024-02-23T09:52:50;6.90;99.90
12043;DHT22;6082;49.306;12.862;2024-02-23T09:55:22;7.00;99.90
12043;DHT22;6082;49.306;12.862;2024-02-23T09:57:48;7.00;99.90
12043;DHT22;6082;49.306;12.862;2024-02-23T10:00:17;7.00;99.90
12043;DHT22;6082;49.306;12.862;2024-02-23T10:02:43;7.00;99.90
12043;DHT22;6082;49.306;12.862;2024-02-23T10:07:37;6.90;99.90
12043;DHT22;6082;49.306;12.862;2024-02-23T10:10:07;6.80;99.90
12043;DHT22;6082;49.306;12.862;2024-02-23T10:12:34;6.90;99.90
12043;DHT22;6082;49.306;12.862;2024-02-23T10:15:01;6.80;99.90
12043;DHT22;6082;49.306;12.862;2024-02-23T10:17:32;6.80;99.90
12043;DHT22;6082;49.306;12.862;2024-02-23T10:20:01;6.80;99.90
12043;DHT22;6082;49.306;12.862;2024-02-23T10:22:30;6.70;99.90
12043;DHT22;6082;49.306;12.862;2024-02-23T10:24:56;6.70;99.90
12043;DHT22;6082;49.306;12.862;2024-02-23T10:27:23;6.70;99.90
12043;DHT22;6082;49.306;12.862;2024-02-23T10:29:52;6.70;99.90
12043;DHT22;6082;49.306;12.862;2024-02-23T10:32:19;6.70;99.90
12043;DHT22;6082;49.306;12.862;2024-02-23T10:34:48;6.70;99.90
12043;DHT22;6082;49.306;12.862;2024-02-23T10:37:15;6.70;99.90
12043;DHT22;6082;49.306;12.862;2024-02-23T10:39:42;6.70;99.90
12043;DHT22;6082;49.306;12.862;2024-02-23T10:42:09;6.80;99.90
12043;DHT22;6082;49.306;12.862;2024-02-23T10:44:37;6.80;99.90
12043;DHT22;6082;49.306;12.862;2024-02-23T10:47:04;6.80;99.90
12043;DHT22;6082;49.306;12.862;2024-02-23T10:49:31;6.80;99.90
12043;DHT22;6082;49.306;12.862;2024-02-23T10:51:56;6.80;99.90
12043;DHT22;6082;49.306;12.862;2024-02-23T10:54:22;6.80;99.90
12043;DHT22;6082;49.306;12.862;2024-02-23T10:56:50;6.80;99.90
12043;DHT22;6082;49.306;12.862;2024-02-23T10:59:20;6.80;99.90
12043;DHT22;6082;49.306;12.862;2024-02-23T11:01:57;6.90;99.90
12043;DHT22;6082;49.306;12.862;2024-02-23T11:04:26;6.90;99.90
12043;DHT22;6082;49.306;12.862;2024-02-23T11:06:56;6.90;99.90
12043;DHT22;6082;49.306;12.862;2024-02-23T11:09:24;6.90;99.90
12043;DHT22;6082;49.306;12.862;2024-02-23T11:11:54;7.00;99.90
12043;DHT22;6082;49.306;12.862;2024-02-23T11:14:36;7.00;99.90
12043;DHT22;6082;49.306;12.862;2024-02-23T11:17:03;7.00;99.90
12043;DHT22;6082;49.306;12.862;2024-02-23T11:19:36;6.90;99.90
12043;DHT22;6082;49.306;12.862;2024-02-23T11:22:03;6.90;99.90
12043;DHT22;6082;49.306;12.862;2024-02-23T11:24:29;6.90;99.90
12043;DHT22;6082;49.306;12.862;2024-02-23T11:27:00;7.00;99.90
12043;DHT22;6082;49.306;12.862;2024-02-23T11:29:33;7.00;99.90
12043;DHT22;6082;49.306;12.862;2024-02-23T11:32:00;7.10;99.90
12043;DHT22;6082;49.306;12.862;2024-02-23T11:34:30;7.10;99.90
12043;DHT22;6082;49.306;12.862;2024-02-23T11:36:56;7.10;99.90
12043;DHT22;6082;49.306;12.862;2024-02-23T11:39:23;7.10;99.90
12043;DHT22;6082;49.306;12.862;2024-02-23T11:41:50;7.00;99.90
12043;DHT22;6082;49.306;12.862;2024-02-23T11:44:16;7.00;99.90
12043;DHT22;6082;49.306;12.862;2024-02-23T11:46:44;6.90;99.90
12043;DHT22;6082;49.306;12.862;2024-02-23T11:49:12;6.90;99.90
12043;DHT22;6082;49.306;12.862;2024-02-23T11:51:38;6.80;99.90
12043;DHT22;6082;49.306;12.862;2024-02-23T11:54:04;6.80;99.90
12043;DHT22;6082;49.306;12.862;2024-02-23T11:56:30;6.70;99.90
12043;DHT22;6082;49.306;12.862;2024-02-23T11:58:55;6.70;99.90
12043;DHT22;6082;49.306;12.862;2024-02-23T12:01:22;6.70;99.90
12043;DHT22;6082;49.306;12.862;2024-02-23T12:03:47;6.60;99.90
12043;DHT22;6082;49.306;12.862;2024-02-23T12:06:14;6.70;99.90
12043;DHT22;6082;49.306;12.862;2024-02-23T12:08:43;6.70;99.90
12043;DHT22;6082;49.306;12.862;2024-02-23T12:11:11;6.70;99.90
12043;DHT22;6082;49.306;12.862;2024-02-23T12:13:37;6.80;99.90
12043;DHT22;6082;49.306;12.862;2024-02-23T12:16:04;6.80;99.90
12043;DHT22;6082;49.306;12.862;2024-02-23T12:18:35;6.80;99.90
12043;DHT22;6082;49.306;12.862;2024-02-23T12:21:05;6.70;99.90
12043;DHT22;6082;49.306;12.862;2024-02-23T12:23:41;6.70;99.90
12043;DHT22;6082;49.306;12.862;2024-02-23T12:26:08;6.60;99.90
12043;DHT22;6082;49.306;12.862;2024-02-23T12:28:34;6.50;99.90
12043;DHT22;6082;49.306;12.862;2024-02-23T12:31:01;6.50;99.90
12043;DHT22;6082;49.306;12.862;2024-02-23T12:33:38;6.50;99.90
12043;DHT22;6082;49.306;12.862;2024-02-23T12:36:07;6.50;99.90
12043;DHT22;6082;49.306;12.862;2024-02-23T12:38:33;6.50;99.90
12043;DHT22;6082;49.306;12.862;2024-02-23T12:41:00;6.50;99.90
12043;DHT22;6082;49.306;12.862;2024-02-23T12:43:26;6.50;99.90
12043;DHT22;6082;49.306;12.862;2024-02-23T12:45:53;6.50;99.90
12043;DHT22;6082;49.306;12.862;2024-02-23T12:48:19;6.60;99.90
12043;DHT22;6082;49.306;12.862;2024-02-23T12:50:46;6.60;99.90
12043;DHT22;6082;49.306;12.862;2024-02-23T12:53:39;6.60;99.90
12043;DHT22;6082;49.306;12.862;2024-02-23T12:56:06;6.60;99.90
12043;DHT22;6082;49.306;12.862;2024-02-23T12:58:34;6.60;99.90
12043;DHT22;6082;49.306;12.862;2024-02-23T13:01:00;6.60;99.90
12043;DHT22;6082;49.306;12.862;2024-02-23T13:03:26;6.50;99.90
12043;DHT22;6082;49.306;12.862;2024-02-23T13:05:53;6.50;99.90
12043;DHT22;6082;49.306;12.862;2024-02-23T13:08:19;6.50;99.90
12043;DHT22;6082;49.306;12.862;2024-02-23T13:10:45;6.40;99.90
12043;DHT22;6082;49.306;12.862;2024-02-23T13:13:11;6.40;99.90
12043;DHT22;6082;49.306;12.862;2024-02-23T13:15:38;6.40;99.90
12043;DHT22;6082;49.306;12.862;2024-02-23T13:18:04;6.40;99.90
12043;DHT22;6082;49.306;12.862;2024-02-23T13:20:30;6.40;99.90
12043;DHT22;6082;49.306;12.862;2024-02-23T13:22:56;6.40;99.90
12043;DHT22;6082;49.306;12.862;2024-02-23T13:25:21;6.40;99.90
12043;DHT22;6082;49.306;12.862;2024-02-23T13:27:47;6.40;99.90
12043;DHT22;6082;49.306;12.862;2024-02-23T13:30:13;6.50;99.90
12043;DHT22;6082;49.306;12.862;2024-02-23T13:32:39;6.50;99.90
12043;DHT22;6082;49.306;12.862;2024-02-23T13:35:05;6.50;99.90
12043;DHT22;6082;49.306;12.862;2024-02-23T13:37:32;6.60;99.90
12043;DHT22;6082;49.306;12.862;2024-02-23T13:39:58;6.50;99.90
12043;DHT22;6082;49.306;12.862;2024-02-23T13:42:24;6.50;99.90
12043;DHT22;6082;49.306;12.862;2024-02-23T13:44:50;6.50;99.90
12043;DHT22;6082;49.306;12.862;2024-02-23T13:47:15;6.50;99.90
12043;DHT22;6082;49.306;12.862;2024-02-23T13:49:41;6.50;99.90
12043;DHT22;6082;49.306;12.862;2024-02-23T13:52:07;6.50;99.90
12043;DHT22;6082;49.306;12.862;2024-02-23T13:54:33;6.50;99.90
12043;DHT22;6082;49.306;12.862;2024-02-23T13:56:58;6.50;99.90
12043;DHT22;6082;49.306;12.862;2024-02-23T13:59:24;6.40;99.90
12043;DHT22;6082;49.306;12.862;2024-02-23T14:01:50;6.50;99.90
12043;DHT22;6082;49.306;12.862;2024-02-23T14:04:16;6.50;99.90
12043;DHT22;6082;49.306;12.862;2024-02-23T14:06:42;6.50;99.90
12043;DHT22;6082;49.306;12.862;2024-02-23T14:09:09;6.60;99.90
12043;DHT22;6082;49.306;12.862;2024-02-23T14:11:35;6.60;99.90
12043;DHT22;6082;49.306;12.862;2024-02-23T14:14:01;6.70;99.90
12043;DHT22;6082;49.306;12.862;2024-02-23T14:16:28;6.70;99.90
12043;DHT22;6082;49.306;12.862;2024-02-23T14:18:54;6.70;99.90
12043;DHT22;6082;49.306;12.862;2024-02-23T14:21:20;6.70;99.90
12043;DHT22;6082;49.306;12.862;2024-02-23T14:23:48;6.80;99.90
12043;DHT22;6082;49.306;12.862;2024-02-23T14:26:13;6.70;99.90
12043;DHT22;6082;49.306;12.862;2024-02-23T14:28:39;6.70;99.90
12043;DHT22;6082;49.306;12.862;2024-02-23T14:31:06;6.70;99.90
12043;DHT22;6082;49.306;12.862;2024-02-23T14:33:32;6.70;99.90
12043;DHT22;6082;49.306;12.862;2024-02-23T14:35:58;6.70;99.90
12043;DHT22;6082;49.306;12.862;2024-02-23T14:38:23;6.70;99.90
12043;DHT22;6082;49.306;12.862;2024-02-23T14:40:50;6.70;99.90
12043;DHT22;6082;49.306;12.862;2024-02-23T14:43:16;6.70;99.90
12043;DHT22;6082;49.306;12.862;2024-02-23T14:45:41;6.70;99.90
12043;DHT22;6082;49.306;12.862;2024-02-23T14:48:07;6.70;99.90
12043;DHT22;6082;49.306;12.862;2024-02-23T14:50:33;6.60;99.90
12043;DHT22;6082;49.306;12.862;2024-02-23T14:52:59;6.60;99.90
12043;DHT22;6082;49.306;12.862;2024-02-23T14:55:25;6.60;99.90
12043;DHT22;6082;49.306;12.862;2024-02-23T14:57:51;6.60;99.90
12043;DHT22;6082;49.306;12.862;2024-02-23T15:00:17;6.60;99.90
12043;DHT22;6082;49.306;12.862;2024-02-23T15:02:43;6.60;99.90
12043;DHT22;6082;49.306;12.862;2024-02-23T15:05:09;6.60;99.90
12043;DHT22;6082;49.306;12.862;2024-02-23T15:07:35;6.60;99.90
12043;DHT22;6082;49.306;12.862;2024-02-23T15:10:04;6.60;99.90
12043;DHT22;6082;49.306;12.862;2024-02-23T15:12:36;6.60;99.90
12043;DHT22;6082;49.306;12.862;2024-02-23T15:15:02;6.60;99.90
12043;DHT22;6082;49.306;12.862;2024-02-23T15:17:29;6.60;99.90
12043;DHT22;6082;49.306;12.862;2024-02-23T15:19:55;6.60;99.90
12043;DHT22;6082;49.306;12.862;2024-02-23T15:22:21;6.60;99.90
12043;DHT22;6082;49.306;12.862;2024-02-23T15:24:47;6.60;99.90
12043;DHT22;6082;49.306;12.862;2024-02-23T15:27:24;6.60;99.90
12043;DHT22;6082;49.306;12.862;2024-02-23T15:29:49;6.60;99.90
12043;DHT22;6082;49.306;12.862;2024-02-23T15:32:15;6.50;99.90
12043;DHT22;6082;49.306;12.862;2024-02-23T15:34:41;6.40;99.90
12043;DHT22;6082;49.306;12.862;2024-02-23T15:37:07;6.40;99.90
12043;DHT22;6082;49.306;12.862;2024-02-23T15:39:33;6.30;99.90
12043;DHT22;6082;49.306;12.862;2024-02-23T15:41:58;6.30;99.90